createdAt,value
2018-12-22T00:04:01.316Z,8.6
2018-12-22T00:09:01.703Z,8.6
2018-12-22T00:14:01.318Z,8.9
2018-12-22T00:19:06.271Z,9.2
2018-12-22T00:25:01.373Z,9.6
2018-12-22T00:30:01.245Z,9.4
2018-12-22T00:35:01.312Z,9.6
2018-12-22T00:40:01.250Z,9.7
2018-12-22T00:45:01.388Z,8.9
2018-12-22T00:50:01.267Z,8.1
2018-12-22T00:55:01.248Z,8.7
2018-12-22T01:00:01.256Z,8.1
2018-12-22T01:05:01.390Z,7.2
2018-12-22T01:15:06.331Z,7.2
2018-12-22T01:20:06.455Z,6.8
2018-12-22T01:30:06.298Z,6.9
2018-12-22T01:35:06.388Z,7.4
2018-12-22T01:45:01.285Z,6.6
2018-12-22T01:50:01.294Z,6.6
2018-12-22T01:55:01.421Z,7.0
2018-12-22T02:00:06.273Z,6.8
2018-12-22T02:05:01.282Z,7.5
2018-12-22T02:10:01.253Z,8.1
2018-12-22T02:15:01.257Z,9.8
2018-12-22T02:20:01.257Z,13.3
2018-12-22T02:25:02.143Z,15.5
2018-12-22T02:30:01.310Z,16.0
2018-12-22T02:35:01.307Z,17.0
2018-12-22T02:40:06.383Z,17.2
2018-12-22T02:45:01.312Z,14.6
2018-12-22T02:50:01.279Z,13.1
2018-12-22T02:55:01.324Z,13.3
2018-12-22T03:00:01.272Z,12.5
2018-12-22T03:05:01.259Z,11.1
2018-12-22T03:10:01.277Z,11.7
2018-12-22T03:15:01.304Z,11.8
2018-12-22T03:20:06.325Z,11.1
2018-12-22T03:30:01.313Z,11.5
2018-12-22T03:35:01.313Z,10.9
2018-12-22T03:40:06.266Z,10.4
2018-12-22T03:45:06.390Z,10.6
2018-12-22T03:50:06.336Z,10.3
2018-12-22T03:55:01.359Z,9.5
2018-12-22T04:00:01.300Z,9.3
2018-12-22T04:05:01.362Z,10.0
2018-12-22T04:10:01.286Z,10.4
2018-12-22T04:15:06.483Z,10.6
2018-12-22T04:20:01.288Z,11.7
2018-12-22T04:25:03.461Z,11.1
2018-12-22T04:30:01.215Z,10.9
2018-12-22T04:35:06.396Z,11.7
2018-12-22T04:40:01.245Z,12.7
2018-12-22T04:45:01.314Z,13.0
2018-12-22T04:50:01.258Z,13.6
2018-12-22T04:55:01.413Z,13.9
2018-12-22T05:00:01.269Z,13.5
2018-12-22T05:05:01.256Z,12.8
2018-12-22T05:10:01.248Z,12.2
2018-12-22T05:15:01.316Z,12.6
2018-12-22T05:20:01.907Z,12.8
2018-12-22T05:25:01.317Z,12.8
2018-12-22T05:30:01.246Z,13.3
2018-12-22T05:35:01.255Z,13.8
2018-12-22T05:40:01.245Z,14.1
2018-12-22T05:45:06.325Z,13.3
2018-12-22T05:50:01.254Z,13.3
2018-12-22T06:00:01.321Z,13.2
2018-12-22T06:05:01.351Z,12.1
2018-12-22T06:10:01.346Z,12.5
2018-12-22T06:15:01.353Z,12.7
2018-12-22T06:20:01.266Z,12.7
2018-12-22T06:25:01.271Z,12.0
2018-12-22T06:30:09.604Z,14.8
2018-12-22T06:40:02.359Z,14.2
2018-12-22T06:45:01.381Z,14.2
2018-12-22T06:50:01.251Z,15.2
2018-12-22T06:55:01.258Z,13.5
2018-12-22T07:00:02.345Z,13.6
2018-12-22T07:05:02.802Z,13.7
2018-12-22T07:10:01.286Z,14.3
2018-12-22T07:15:06.403Z,15.1
2018-12-22T07:20:06.255Z,16.3
2018-12-22T07:25:06.384Z,16.8
2018-12-22T07:30:06.255Z,16.8
2018-12-22T07:35:01.351Z,16.7
2018-12-22T07:40:06.266Z,15.4
2018-12-22T07:45:06.321Z,14.0
2018-12-22T07:50:06.253Z,12.8
2018-12-22T07:55:06.384Z,12.2
2018-12-22T08:00:06.450Z,11.8
2018-12-22T08:10:06.507Z,11.8
2018-12-22T08:15:06.322Z,12.6
2018-12-22T08:20:01.263Z,13.2
2018-12-22T08:25:01.253Z,12.8
2018-12-22T08:30:01.243Z,12.8
2018-12-22T08:35:01.325Z,12.1
2018-12-22T08:40:01.372Z,12.4
2018-12-22T08:45:01.329Z,12.4
2018-12-22T08:50:14.289Z,12.7
2018-12-22T08:55:01.261Z,12.5
2018-12-22T09:00:01.328Z,13.3
2018-12-22T09:05:01.381Z,13.4
2018-12-22T09:10:01.248Z,12.6
2018-12-22T09:15:01.342Z,12.7
2018-12-22T09:20:01.245Z,12.5
2018-12-22T09:25:01.321Z,12.1
2018-12-22T09:30:01.252Z,11.9
2018-12-22T09:35:01.384Z,12.5
2018-12-22T09:40:01.353Z,12.3
2018-12-22T09:45:01.255Z,12.7
2018-12-22T09:50:01.264Z,13.1
2018-12-22T09:55:01.318Z,12.9
2018-12-22T10:00:07.288Z,12.9
2018-12-22T10:05:06.390Z,13.2
2018-12-22T10:10:06.263Z,13.1
2018-12-22T10:15:06.444Z,13.2
2018-12-22T10:20:06.248Z,13.2
2018-12-22T10:25:01.343Z,13.6
2018-12-22T10:30:06.301Z,13.4
2018-12-22T10:35:06.323Z,13.6
2018-12-22T10:40:06.267Z,13.5
2018-12-22T10:45:01.354Z,13.8
2018-12-22T10:50:01.290Z,13.4
2018-12-22T11:00:01.397Z,12.6
2018-12-22T11:05:01.240Z,12.2
2018-12-22T11:10:01.242Z,11.8
2018-12-22T11:15:01.373Z,11.4
2018-12-22T11:20:01.245Z,11.6
2018-12-22T11:25:01.314Z,12.2
2018-12-22T11:30:01.221Z,12.3
2018-12-22T11:35:01.317Z,12.7
2018-12-22T11:40:01.254Z,13.1
2018-12-22T11:45:01.384Z,13.2
2018-12-22T11:50:01.257Z,13.2
2018-12-22T11:55:01.366Z,13.0
2018-12-22T12:00:01.298Z,12.6
2018-12-22T12:10:01.379Z,12.2
2018-12-22T12:15:01.313Z,12.9
2018-12-22T12:20:01.248Z,13.0
2018-12-22T12:25:01.377Z,12.9
2018-12-22T12:30:01.256Z,13.4
2018-12-22T12:35:01.326Z,13.2
2018-12-22T12:40:01.294Z,12.8
2018-12-22T12:45:01.249Z,13.4
2018-12-22T12:50:06.251Z,14.0
2018-12-22T12:55:01.437Z,14.0
2018-12-22T13:00:01.231Z,14.3
2018-12-22T13:05:06.260Z,14.1
2018-12-22T13:10:06.261Z,13.6
2018-12-22T13:15:01.313Z,13.2
2018-12-22T13:25:01.317Z,13.8
2018-12-22T13:30:01.267Z,12.9
2018-12-22T13:35:01.368Z,13.6
2018-12-22T13:45:06.320Z,13.5
2018-12-22T13:50:06.831Z,14.1
2018-12-22T13:55:06.258Z,15.0
2018-12-22T14:00:06.260Z,14.5
2018-12-22T14:05:01.401Z,14.0
2018-12-22T14:15:06.392Z,13.2
2018-12-22T14:20:01.275Z,13.5
2018-12-22T14:25:01.332Z,13.6
2018-12-22T14:30:01.392Z,14.1
2018-12-22T14:35:06.400Z,14.4
2018-12-22T14:40:06.250Z,15.4
2018-12-22T14:45:11.391Z,15.8
2018-12-22T14:50:06.249Z,15.9
2018-12-22T14:55:06.320Z,16.0
2018-12-22T15:00:06.271Z,16.0
2018-12-22T15:05:06.406Z,15.0
2018-12-22T15:10:01.281Z,14.3
2018-12-22T15:15:01.348Z,14.4
2018-12-22T15:20:06.257Z,14.8
2018-12-22T15:25:06.333Z,14.8
2018-12-22T15:30:01.255Z,15.6
2018-12-22T15:40:01.322Z,16.3
2018-12-22T15:45:06.257Z,16.2
2018-12-22T15:55:01.384Z,16.4
2018-12-22T16:00:01.245Z,16.7
2018-12-22T16:05:01.312Z,16.3
2018-12-22T16:10:01.254Z,17.8
2018-12-22T16:15:01.305Z,19.0
2018-12-22T16:20:06.274Z,19.7
2018-12-22T16:25:01.389Z,21.0
2018-12-22T16:30:01.262Z,22.4
2018-12-22T16:35:06.265Z,21.6
2018-12-22T16:40:01.243Z,20.9
2018-12-22T16:45:06.331Z,20.4
2018-12-22T16:50:06.259Z,20.1
2018-12-22T16:55:01.290Z,18.8
2018-12-22T17:00:06.274Z,19.4
2018-12-22T17:05:02.417Z,19.8
2018-12-22T17:10:01.393Z,19.9
2018-12-22T17:15:01.319Z,20.9
2018-12-22T17:20:01.241Z,21.6
2018-12-22T17:26:01.239Z,21.6
2018-12-22T17:31:01.309Z,22.2
2018-12-22T17:36:01.248Z,22.1
2018-12-22T17:41:06.317Z,21.9
2018-12-22T17:46:01.213Z,23.0
2018-12-22T17:51:01.379Z,22.9
2018-12-22T17:56:11.265Z,23.5
2018-12-22T18:01:01.344Z,24.8
2018-12-22T18:06:01.286Z,25.6
2018-12-22T18:11:01.393Z,25.5
2018-12-22T18:16:01.268Z,27.0
2018-12-22T18:21:01.302Z,27.8
2018-12-22T18:31:01.398Z,28.6
2018-12-22T18:36:06.248Z,30.1
2018-12-22T18:41:06.513Z,31.6
2018-12-22T18:46:01.280Z,31.2
2018-12-22T18:51:01.413Z,30.8
2018-12-22T18:56:01.282Z,31.3
2018-12-22T19:01:06.419Z,30.8
2018-12-22T19:06:01.335Z,28.8
2018-12-22T19:11:01.340Z,28.4
2018-12-22T19:16:01.413Z,29.0
2018-12-22T19:21:01.339Z,28.7
2018-12-22T19:26:06.316Z,28.2
2018-12-22T19:31:06.317Z,28.8
2018-12-22T19:36:07.296Z,28.3
2018-12-22T19:41:01.350Z,28.2
2018-12-22T19:46:11.266Z,28.8
2018-12-22T19:51:06.324Z,28.0
2018-12-22T19:56:01.299Z,26.9
2018-12-22T20:01:01.412Z,27.4
2018-12-22T20:06:01.293Z,27.1
2018-12-22T20:11:01.366Z,26.0
2018-12-22T20:16:09.363Z,27.2
2018-12-22T20:21:01.348Z,28.5
2018-12-22T20:26:01.284Z,29.1
2018-12-22T20:31:01.417Z,29.6
2018-12-22T20:36:01.289Z,30.4
2018-12-22T20:41:01.376Z,30.4
2018-12-22T20:46:01.298Z,29.7
2018-12-22T20:51:01.314Z,28.5
2018-12-22T20:56:01.284Z,27.3
2018-12-22T21:01:06.272Z,25.9
2018-12-22T21:06:01.291Z,24.9
2018-12-22T21:12:01.411Z,25.5
2018-12-22T21:17:01.288Z,26.6
2018-12-22T21:22:01.403Z,26.6
2018-12-22T21:27:11.274Z,26.8
2018-12-22T21:32:01.348Z,27.2
2018-12-22T21:37:01.285Z,25.5
2018-12-22T21:42:11.328Z,24.7
2018-12-22T21:47:06.261Z,25.6
2018-12-22T21:52:06.323Z,25.7
2018-12-22T21:57:06.247Z,25.0
2018-12-22T22:02:06.380Z,26.2
2018-12-22T22:07:06.317Z,26.5
2018-12-22T22:12:07.280Z,25.6
2018-12-22T22:17:06.267Z,26.1
2018-12-22T22:22:11.347Z,26.5
2018-12-22T22:27:06.271Z,25.6
2018-12-22T22:32:06.388Z,24.8
2018-12-22T22:37:01.299Z,24.0
2018-12-22T22:42:06.394Z,23.8
2018-12-22T22:47:06.262Z,23.5
2018-12-22T22:52:01.305Z,22.9
2018-12-22T22:58:01.249Z,23.2
2018-12-22T23:03:01.313Z,22.9
2018-12-22T23:08:01.246Z,21.7
2018-12-22T23:13:01.371Z,20.2
2018-12-22T23:23:06.330Z,19.2
2018-12-22T23:28:06.256Z,19.2
2018-12-22T23:33:06.397Z,17.9
2018-12-22T23:38:01.276Z,17.3
2018-12-22T23:43:01.407Z,16.5
2018-12-22T23:48:01.849Z,15.4
2018-12-22T23:53:01.337Z,14.2
2018-12-22T23:58:06.356Z,14.2
